Current Weather

Ministro Pistarini

Ministro Pistarini, Argentina (SAEZ)

Report from: Saturday, February 24, 2024 3:00 PM -03
Current time: Saturday, February 24, 2024 3:49 PM -03

Nearby weather – Weather history – Daily summaries
Weather forecast

Temperature26.0°C (78.8°F)
Dew point16.0°C (60.8°F)
Winds 11 kts (5.7 m/s, 12.7 mph) Southeast (130°)
Visibility6.2 mi. (10 km)
Clouds Ceiling: Broken clouds 4,500 ft. (1,372 m)
Altimeter30.18 in.Hg (1022 mB)
Relative humidity54 %
Density altitude1,229 ft. (375 m)
Remarks No significant changes expected in the next two hours
Flight conditions Visual Meteorological Conditions
Raw dataSAEZ 241800Z 13011KT 9999 BKN045 26/16 Q1022 NOSIG
An error has occurred. This application may no longer respond until reloaded. Reload 🗙